Time;durP1;ratioP1;P1;durP2;ratioP2;P2;SDS_P1;SDS_P2;PMS_P1;PMS_P2;Temp;Humidity;BMP_temperature;BMP_pressure;BME280_temperature;BME280_humidity;BME280_pressure;Samples;Min_cycle;Max_cycle;Signal;HPM_P1;HPM_P2
2021/07/21 00:02:27;;;;;;;7.70;5.50;;;15.10;99.90;;;;;;5013783;28;20040;-75
2021/07/21 00:04:53;;;;;;;8.70;5.82;;;15.20;99.90;;;;;;5046621;28;20126;-75
2021/07/21 00:07:18;;;;;;;9.45;5.57;;;15.10;99.90;;;;;;5029210;28;20500;-75
2021/07/21 00:09:44;;;;;;;8.85;5.72;;;15.10;99.90;;;;;;5048199;28;20029;-75
2021/07/21 00:14:57;;;;;;;9.80;5.68;;;15.00;99.90;;;;;;5047396;28;20038;-75
2021/07/21 00:17:25;;;;;;;9.88;5.65;;;15.00;99.90;;;;;;5046695;28;20048;-75
2021/07/21 00:20:08;;;;;;;9.88;5.70;;;14.90;99.90;;;;;;5046424;28;20020;-75
2021/07/21 00:22:39;;;;;;;9.85;6.47;;;14.90;99.90;;;;;;5014116;28;20556;-75
2021/07/21 00:25:08;;;;;;;10.02;5.50;;;14.80;99.90;;;;;;5030676;28;20040;-75
2021/07/21 00:27:34;;;;;;;9.68;5.88;;;14.80;99.90;;;;;;5062290;28;20028;-75
2021/07/21 00:30:00;;;;;;;9.38;5.88;;;14.70;99.90;;;;;;5046142;28;20040;-75
2021/07/21 00:32:26;;;;;;;10.45;5.50;;;14.70;99.90;;;;;;5029211;28;20028;-75
2021/07/21 00:34:52;;;;;;;8.68;5.65;;;14.70;99.90;;;;;;4996948;28;20068;-75
2021/07/21 00:37:17;;;;;;;8.15;5.60;;;14.70;99.90;;;;;;5029265;28;20033;-75
2021/07/21 00:39:45;;;;;;;9.10;5.97;;;14.60;99.90;;;;;;5061549;28;20522;-76
2021/07/21 00:42:13;;;;;;;9.80;5.88;;;14.60;99.90;;;;;;5045736;28;20037;-75
2021/07/21 00:44:39;;;;;;;10.18;6.07;;;14.60;99.90;;;;;;5028107;28;20037;-73
2021/07/21 00:47:05;;;;;;;9.32;5.72;;;14.60;99.90;;;;;;5045473;28;20029;-73
2021/07/21 00:49:33;;;;;;;7.88;5.22;;;14.60;99.90;;;;;;5047066;28;20124;-73
2021/07/21 00:52:04;;;;;;;10.63;5.72;;;14.50;99.90;;;;;;5028057;28;20065;-73
2021/07/21 00:54:31;;;;;;;7.95;5.55;;;14.50;99.90;;;;;;5031424;28;20044;-73
2021/07/21 00:56:59;;;;;;;9.52;5.53;;;14.50;99.90;;;;;;5042957;28;20025;-73
2021/07/21 00:59:26;;;;;;;8.65;5.55;;;14.50;99.90;;;;;;5027602;28;20045;-73
2021/07/21 01:01:51;;;;;;;11.55;5.97;;;14.50;99.90;;;;;;5031590;28;20974;-73
2021/07/21 01:04:19;;;;;;;8.70;6.10;;;14.40;99.90;;;;;;5030411;28;20035;-73
2021/07/21 01:06:45;;;;;;;9.15;5.90;;;14.40;99.90;;;;;;5012664;28;20033;-73
2021/07/21 01:09:12;;;;;;;8.25;5.65;;;14.40;99.90;;;;;;5029898;28;20040;-73
2021/07/21 01:12:00;;;;;;;9.27;6.28;;;14.30;99.90;;;;;;5030133;28;20067;-73
2021/07/21 01:14:55;;;;;;;10.23;5.63;;;14.30;99.90;;;;;;5016665;28;20479;-73
2021/07/21 01:17:47;;;;;;;8.68;5.13;;;14.20;99.90;;;;;;5028951;28;20033;-73
2021/07/21 01:20:27;;;;;;;8.32;5.63;;;14.30;99.90;;;;;;5027102;28;20053;-73
2021/07/21 01:23:04;;;;;;;9.02;5.60;;;14.20;99.90;;;;;;5029864;28;20423;-73
2021/07/21 01:25:35;;;;;;;9.30;5.70;;;14.20;99.90;;;;;;5012804;28;20467;-73
2021/07/21 01:28:03;;;;;;;7.75;5.40;;;14.20;99.90;;;;;;4990990;28;21890;-73
2021/07/21 01:30:35;;;;;;;11.90;5.38;;;14.20;99.90;;;;;;5042643;28;20447;-73
2021/07/21 01:33:03;;;;;;;9.48;5.05;;;14.10;99.90;;;;;;5013371;28;20124;-73
2021/07/21 01:35:45;;;;;;;8.93;5.70;;;14.10;99.90;;;;;;5012535;28;20033;-73
2021/07/21 01:38:24;;;;;;;11.32;5.85;;;14.10;99.90;;;;;;5027992;28;20040;-73
2021/07/21 01:40:57;;;;;;;9.98;5.60;;;14.00;99.90;;;;;;5027750;28;20503;-73
2021/07/21 01:43:27;;;;;;;8.63;5.10;;;14.00;99.90;;;;;;5028154;28;20038;-75
2021/07/21 01:45:53;;;;;;;9.95;6.25;;;14.00;99.90;;;;;;5044943;28;20037;-73
2021/07/21 01:48:19;;;;;;;8.30;5.50;;;13.90;99.90;;;;;;5012245;28;20501;-73
2021/07/21 01:50:45;;;;;;;8.60;5.70;;;14.00;99.90;;;;;;5043578;28;20037;-73
2021/07/21 01:53:13;;;;;;;10.35;6.07;;;13.90;99.90;;;;;;5044121;28;20664;-73
2021/07/21 01:55:40;;;;;;;8.63;5.70;;;13.90;99.90;;;;;;4994298;28;20033;-73
2021/07/21 01:58:06;;;;;;;8.43;5.70;;;13.90;99.90;;;;;;5052999;28;20056;-73
2021/07/21 02:00:33;;;;;;;8.98;5.50;;;13.90;99.90;;;;;;5029832;28;20529;-74
2021/07/21 02:03:03;;;;;;;9.80;5.47;;;13.80;99.90;;;;;;5065245;28;20033;-74
2021/07/21 02:05:31;;;;;;;9.48;5.95;;;13.80;99.90;;;;;;5063729;28;20028;-74
2021/07/21 02:07:57;;;;;;;12.07;6.00;;;13.80;99.90;;;;;;5030228;28;20037;-74
2021/07/21 02:10:28;;;;;;;12.27;5.63;;;13.80;99.90;;;;;;5047441;28;20086;-74
2021/07/21 02:13:10;;;;;;;8.88;5.60;;;13.80;99.90;;;;;;5048064;28;20020;-74
2021/07/21 02:15:35;;;;;;;9.13;5.30;;;13.80;99.90;;;;;;5049783;28;20029;-74
2021/07/21 02:18:04;;;;;;;8.50;5.55;;;13.70;99.90;;;;;;5047794;28;20036;-74
2021/07/21 02:20:29;;;;;;;8.15;5.30;;;13.70;99.90;;;;;;5030773;28;20224;-74
2021/07/21 02:22:57;;;;;;;10.95;6.20;;;13.70;99.90;;;;;;5030982;28;20032;-74
2021/07/21 02:25:24;;;;;;;9.93;5.70;;;13.70;99.90;;;;;;5029478;28;20028;-74
2021/07/21 02:27:52;;;;;;;9.35;5.63;;;13.60;99.90;;;;;;5030244;28;20402;-74
2021/07/21 02:30:18;;;;;;;8.23;5.53;;;13.60;99.90;;;;;;5029883;28;20447;-74
2021/07/21 02:32:55;;;;;;;9.68;5.82;;;13.60;99.90;;;;;;5045407;28;20135;-73
2021/07/21 02:35:21;;;;;;;8.20;5.68;;;13.60;99.90;;;;;;5047763;28;20570;-73
2021/07/21 02:37:48;;;;;;;9.55;5.55;;;13.60;99.90;;;;;;5046813;28;20048;-73
2021/07/21 02:40:19;;;;;;;8.63;5.80;;;13.60;99.90;;;;;;5029651;28;20044;-73
2021/07/21 02:42:45;;;;;;;9.75;5.68;;;13.60;99.90;;;;;;5046321;28;20028;-73
2021/07/21 02:45:11;;;;;;;10.07;5.90;;;13.60;99.90;;;;;;5048238;28;20040;-73
2021/07/21 02:47:37;;;;;;;9.35;5.65;;;13.60;99.90;;;;;;5048879;28;20401;-74
2021/07/21 02:50:03;;;;;;;9.70;5.68;;;13.60;99.90;;;;;;5048260;28;20043;-73
2021/07/21 02:52:42;;;;;;;8.70;5.50;;;13.50;99.90;;;;;;5046631;28;20542;-74
2021/07/21 02:55:20;;;;;;;9.30;5.70;;;13.50;99.90;;;;;;5029978;28;20033;-74
2021/07/21 02:58:09;;;;;;;8.98;5.63;;;13.50;99.90;;;;;;5047986;28;20052;-73
2021/07/21 03:00:35;;;;;;;7.97;5.38;;;13.50;99.90;;;;;;5031050;28;20044;-73
2021/07/21 03:03:11;;;;;;;10.93;6.00;;;13.40;99.90;;;;;;5030461;28;20036;-73
2021/07/21 03:05:37;;;;;;;7.55;5.22;;;13.40;99.90;;;;;;5047194;28;20542;-73
2021/07/21 03:08:02;;;;;;;8.43;5.45;;;13.40;99.90;;;;;;5028211;28;20451;-73
2021/07/21 03:10:28;;;;;;;9.65;5.30;;;13.30;99.90;;;;;;5045394;28;20056;-73
2021/07/21 03:13:04;;;;;;;9.05;5.75;;;13.40;99.90;;;;;;5046265;28;20068;-73
2021/07/21 03:15:32;;;;;;;9.65;5.53;;;13.40;99.90;;;;;;5030122;28;20029;-74
2021/07/21 03:17:57;;;;;;;10.40;5.82;;;13.40;99.90;;;;;;5045528;28;20031;-73
2021/07/21 03:20:23;;;;;;;8.95;5.10;;;13.40;99.90;;;;;;5020439;28;20033;-73
2021/07/21 03:22:53;;;;;;;7.85;5.50;;;13.40;99.90;;;;;;5030286;28;20035;-73
2021/07/21 03:25:18;;;;;;;9.75;6.13;;;13.30;99.90;;;;;;5002303;28;20036;-74
2021/07/21 03:27:44;;;;;;;8.00;5.40;;;13.40;99.90;;;;;;5063490;28;20107;-73
2021/07/21 03:30:11;;;;;;;8.18;5.60;;;13.30;99.90;;;;;;5011115;28;20486;-74
2021/07/21 03:32:37;;;;;;;8.93;5.75;;;13.30;99.90;;;;;;5029427;28;20033;-73
2021/07/21 03:35:04;;;;;;;9.07;5.63;;;13.30;99.90;;;;;;5029328;28;20033;-73
2021/07/21 03:37:29;;;;;;;8.02;5.70;;;13.30;99.90;;;;;;5043646;28;20063;-74
2021/07/21 03:39:58;;;;;;;7.22;5.30;;;13.30;99.90;;;;;;5061702;28;20338;-73
2021/07/21 03:42:24;;;;;;;8.32;5.80;;;13.30;99.90;;;;;;5044887;28;20039;-73
2021/07/21 03:44:53;;;;;;;8.80;6.15;;;13.30;99.90;;;;;;5012951;28;20020;-73
2021/07/21 03:47:19;;;;;;;8.00;5.45;;;13.20;99.90;;;;;;5029853;28;20120;-73
2021/07/21 03:49:45;;;;;;;7.85;5.63;;;13.20;99.90;;;;;;5030376;28;20032;-73
2021/07/21 03:52:11;;;;;;;9.05;5.63;;;13.20;99.90;;;;;;5062525;28;20039;-73
2021/07/21 03:54:37;;;;;;;8.05;5.38;;;13.20;99.90;;;;;;5048139;28;20033;-73
2021/07/21 03:57:03;;;;;;;8.25;5.65;;;13.20;99.90;;;;;;5028626;28;20115;-72
2021/07/21 03:59:31;;;;;;;8.07;5.47;;;13.20;99.90;;;;;;5028636;28;20036;-73
2021/07/21 04:01:57;;;;;;;8.63;5.57;;;13.20;99.90;;;;;;5011880;28;20024;-73
2021/07/21 04:04:25;;;;;;;9.90;5.78;;;13.20;99.90;;;;;;5044857;28;20033;-73
2021/07/21 04:06:53;;;;;;;9.57;6.05;;;13.20;99.90;;;;;;5061102;28;20135;-73
2021/07/21 04:09:24;;;;;;;7.47;5.72;;;13.20;99.90;;;;;;5029270;28;20100;-73
2021/07/21 04:11:51;;;;;;;8.27;5.50;;;13.20;99.90;;;;;;4995682;28;20033;-73
2021/07/21 04:14:22;;;;;;;9.13;5.80;;;13.20;99.90;;;;;;5046877;28;20041;-73
2021/07/21 04:16:52;;;;;;;8.10;5.68;;;13.20;99.90;;;;;;5046232;28;20040;-73
2021/07/21 04:19:20;;;;;;;8.15;5.32;;;13.20;99.90;;;;;;5045516;28;20032;-73
2021/07/21 04:21:47;;;;;;;8.50;5.72;;;13.20;99.90;;;;;;5045246;28;20144;-73
2021/07/21 04:24:13;;;;;;;7.68;5.43;;;13.20;99.90;;;;;;5044643;28;20052;-73
2021/07/21 04:26:40;;;;;;;7.97;5.38;;;13.20;99.90;;;;;;5047109;28;20128;-73
2021/07/21 04:29:06;;;;;;;9.10;5.90;;;13.20;99.90;;;;;;5062966;28;20029;-73
2021/07/21 04:31:37;;;;;;;8.05;5.78;;;13.20;99.90;;;;;;5042355;28;20032;-73
2021/07/21 04:34:03;;;;;;;9.50;5.60;;;13.30;99.90;;;;;;5065969;28;20088;-73
2021/07/21 04:36:33;;;;;;;7.35;5.38;;;13.30;99.90;;;;;;5048766;28;20055;-73
2021/07/21 04:38:59;;;;;;;11.57;5.90;;;13.30;99.90;;;;;;5049020;28;20107;-73
2021/07/21 04:41:24;;;;;;;7.82;5.63;;;13.30;99.90;;;;;;5065375;28;20029;-73
2021/07/21 04:43:50;;;;;;;8.30;5.60;;;13.30;99.90;;;;;;5049934;28;21787;-74
2021/07/21 04:46:19;;;;;;;7.43;5.78;;;13.40;99.90;;;;;;5032403;28;20462;-73
2021/07/21 04:48:44;;;;;;;7.55;5.50;;;13.40;99.90;;;;;;5016252;28;20866;-73
2021/07/21 04:51:12;;;;;;;8.95;5.75;;;13.40;99.90;;;;;;5032570;28;20036;-73
2021/07/21 04:53:40;;;;;;;7.82;5.80;;;13.40;99.90;;;;;;5050640;28;20032;-73
2021/07/21 04:56:08;;;;;;;7.97;5.72;;;13.50;99.90;;;;;;5048619;28;20041;-73
2021/07/21 04:58:34;;;;;;;9.85;5.70;;;13.50;99.90;;;;;;5049231;28;20057;-73
2021/07/21 05:01:00;;;;;;;9.15;5.18;;;13.50;99.90;;;;;;5048378;28;20036;-73
2021/07/21 05:03:25;;;;;;;9.00;5.53;;;13.50;99.90;;;;;;5049204;28;20060;-73
2021/07/21 05:05:51;;;;;;;10.23;5.50;;;13.50;99.90;;;;;;5049722;28;20044;-73
2021/07/21 05:08:17;;;;;;;7.20;5.47;;;13.60;99.90;;;;;;5015755;28;20040;-73
2021/07/21 05:10:45;;;;;;;7.68;5.55;;;13.60;99.90;;;;;;5049417;28;20060;-73
2021/07/21 05:13:10;;;;;;;8.02;5.70;;;13.60;99.90;;;;;;5065962;28;20025;-73
2021/07/21 05:15:44;;;;;;;9.52;5.60;;;13.70;99.90;;;;;;5049809;28;20067;-73
2021/07/21 05:18:13;;;;;;;8.13;5.40;;;13.70;99.90;;;;;;5049500;28;20107;-73
2021/07/21 05:20:41;;;;;;;8.48;5.50;;;13.80;99.90;;;;;;5047524;28;20102;-73
2021/07/21 05:23:11;;;;;;;8.35;5.88;;;13.80;99.90;;;;;;5032279;28;20043;-73
2021/07/21 05:25:38;;;;;;;8.60;5.70;;;13.80;99.90;;;;;;5049196;28;20028;-75
2021/07/21 05:28:09;;;;;;;7.55;5.47;;;13.80;99.90;;;;;;5047936;28;20493;-74
2021/07/21 05:30:40;;;;;;;8.45;5.68;;;13.90;99.90;;;;;;5014120;28;20036;-74
2021/07/21 05:33:05;;;;;;;7.50;5.57;;;13.90;99.90;;;;;;5049543;28;20033;-75
2021/07/21 05:35:33;;;;;;;7.53;5.10;;;14.00;99.90;;;;;;5050280;28;20037;-74
2021/07/21 05:38:01;;;;;;;8.48;5.38;;;14.00;99.90;;;;;;5047944;28;20039;-75
2021/07/21 05:40:27;;;;;;;8.43;5.72;;;14.10;99.90;;;;;;5014887;28;20037;-74
2021/07/21 05:42:53;;;;;;;7.95;5.53;;;14.20;99.90;;;;;;5015169;28;20690;-74
2021/07/21 05:45:20;;;;;;;8.98;5.78;;;14.20;99.90;;;;;;5063012;28;20029;-75
2021/07/21 05:47:46;;;;;;;8.48;5.75;;;14.20;99.90;;;;;;5048957;28;20033;-74
2021/07/21 05:50:12;;;;;;;9.10;5.40;;;14.40;99.90;;;;;;5017360;28;21017;-75
2021/07/21 05:52:37;;;;;;;8.18;5.60;;;14.40;99.90;;;;;;5031113;28;20025;-74
2021/07/21 05:55:04;;;;;;;9.25;5.72;;;14.50;99.90;;;;;;5048306;28;20025;-74
2021/07/21 05:57:30;;;;;;;8.00;5.57;;;14.50;99.90;;;;;;5048685;28;20103;-74
2021/07/21 05:59:58;;;;;;;8.93;5.43;;;14.50;99.90;;;;;;5048324;28;20506;-74
2021/07/21 06:02:24;;;;;;;8.50;5.80;;;14.60;99.90;;;;;;5048777;28;20636;-74
2021/07/21 06:04:49;;;;;;;8.88;5.80;;;14.70;99.90;;;;;;5048500;28;20056;-74
2021/07/21 06:07:15;;;;;;;8.43;5.63;;;14.70;99.90;;;;;;5047890;28;20047;-74
2021/07/21 06:09:42;;;;;;;7.22;5.50;;;14.80;99.90;;;;;;5029071;28;20063;-74
2021/07/21 06:12:08;;;;;;;9.57;5.60;;;14.80;99.90;;;;;;5049368;28;20100;-68
2021/07/21 06:14:36;;;;;;;9.65;5.82;;;14.90;99.90;;;;;;5062748;28;21892;-69
2021/07/21 06:17:02;;;;;;;9.18;5.95;;;14.90;99.90;;;;;;5030689;28;20101;-74
2021/07/21 06:19:29;;;;;;;8.80;6.03;;;15.00;99.90;;;;;;5046771;28;21916;-74
2021/07/21 06:21:58;;;;;;;7.60;5.75;;;15.00;99.90;;;;;;5065234;28;20096;-74
2021/07/21 06:24:23;;;;;;;8.90;5.78;;;15.10;99.90;;;;;;5047658;28;20037;-74
2021/07/21 06:26:59;;;;;;;9.48;5.43;;;15.20;99.90;;;;;;5048769;28;20094;-74
2021/07/21 06:29:25;;;;;;;7.55;5.80;;;15.20;99.90;;;;;;5027261;28;20516;-74
2021/07/21 06:31:52;;;;;;;7.47;5.18;;;15.20;99.90;;;;;;5028222;28;20036;-70
2021/07/21 06:34:17;;;;;;;8.43;5.60;;;15.30;99.90;;;;;;5028943;28;20128;-70
2021/07/21 06:36:43;;;;;;;8.25;5.53;;;15.30;99.90;;;;;;5002543;28;20448;-74
2021/07/21 06:39:11;;;;;;;8.98;5.82;;;15.40;99.90;;;;;;5047230;28;20029;-73
2021/07/21 06:41:37;;;;;;;7.95;5.47;;;15.40;99.90;;;;;;5029142;28;20028;-74
2021/07/21 06:44:05;;;;;;;10.32;5.60;;;15.40;99.90;;;;;;5047403;28;20024;-73
2021/07/21 06:46:31;;;;;;;10.43;5.60;;;15.50;99.90;;;;;;5046198;28;20059;-74
2021/07/21 06:48:57;;;;;;;7.85;5.40;;;15.50;99.90;;;;;;5014305;28;20469;-73
2021/07/21 06:51:23;;;;;;;7.65;5.00;;;15.60;99.90;;;;;;5046349;28;20467;-74
2021/07/21 06:53:49;;;;;;;8.68;5.55;;;15.60;99.90;;;;;;5028715;28;20099;-74
2021/07/21 06:56:17;;;;;;;8.30;5.28;;;15.70;99.90;;;;;;5028717;28;20722;-68
2021/07/21 06:58:42;;;;;;;9.63;5.72;;;15.80;99.90;;;;;;5044777;28;20119;-69
2021/07/21 07:01:10;;;;;;;8.95;5.45;;;15.90;99.90;;;;;;5046402;28;20118;-74
2021/07/21 07:03:39;;;;;;;7.55;5.05;;;15.90;99.90;;;;;;5046357;28;20033;-72
2021/07/21 07:06:07;;;;;;;8.43;5.22;;;15.90;99.90;;;;;;5044080;28;20032;-73
2021/07/21 07:08:37;;;;;;;8.15;5.30;;;16.00;99.90;;;;;;5046065;28;20052;-73
2021/07/21 07:11:03;;;;;;;7.90;5.40;;;16.10;99.90;;;;;;5046174;28;20032;-73
2021/07/21 07:13:29;;;;;;;9.27;5.57;;;16.10;99.90;;;;;;5027966;28;20029;-73
2021/07/21 07:16:02;;;;;;;8.30;5.25;;;16.20;99.90;;;;;;5046102;28;20025;-73
2021/07/21 07:18:31;;;;;;;8.30;5.20;;;16.30;99.90;;;;;;5045490;28;20040;-75
2021/07/21 07:20:56;;;;;;;8.45;5.43;;;16.30;99.90;;;;;;5027532;28;20040;-73
2021/07/21 07:23:23;;;;;;;11.90;5.13;;;16.40;99.90;;;;;;5029154;28;20036;-73
2021/07/21 07:25:48;;;;;;;7.43;4.88;;;16.50;99.90;;;;;;5024949;28;21924;-73
2021/07/21 07:28:20;;;;;;;7.32;5.03;;;16.50;99.90;;;;;;5043133;28;20077;-73
2021/07/21 07:30:47;;;;;;;7.75;5.20;;;16.60;99.90;;;;;;5061221;28;20595;-73
2021/07/21 07:33:17;;;;;;;7.55;5.10;;;16.70;99.90;;;;;;5029483;28;20067;-73
2021/07/21 07:35:43;;;;;;;8.70;5.60;;;16.80;99.90;;;;;;5046288;28;20033;-74
2021/07/21 07:38:12;;;;;;;8.45;5.03;;;16.90;99.90;;;;;;5045501;28;20036;-73
2021/07/21 07:40:44;;;;;;;8.23;5.18;;;17.00;99.90;;;;;;5028742;28;20032;-73
2021/07/21 07:43:10;;;;;;;7.13;4.90;;;17.10;99.90;;;;;;5027104;28;20029;-73
2021/07/21 07:45:37;;;;;;;8.30;4.80;;;17.20;99.90;;;;;;5044681;28;20028;-73
2021/07/21 07:48:03;;;;;;;7.97;4.82;;;17.30;99.90;;;;;;5045676;28;20032;-73
2021/07/21 07:50:29;;;;;;;11.50;5.00;;;17.40;99.90;;;;;;5044224;28;20354;-73
2021/07/21 07:52:57;;;;;;;18.40;13.52;;;17.60;99.90;;;;;;5025645;28;20025;-68
2021/07/21 07:55:23;;;;;;;12.20;8.38;;;17.80;99.90;;;;;;5046390;28;20664;-73
2021/07/21 07:57:51;;;;;;;8.65;5.60;;;18.00;99.90;;;;;;5044406;28;20059;-73
2021/07/21 08:00:17;;;;;;;9.13;5.78;;;18.30;99.90;;;;;;5046631;28;20029;-73
2021/07/21 08:02:45;;;;;;;8.23;5.18;;;18.40;99.90;;;;;;5045032;28;20583;-73
2021/07/21 08:05:14;;;;;;;8.93;5.00;;;18.60;99.90;;;;;;5045240;28;20045;-73
2021/07/21 08:07:42;;;;;;;6.60;3.95;;;18.80;99.90;;;;;;5044766;28;20143;-73
2021/07/21 08:10:12;;;;;;;6.85;4.30;;;19.00;97.10;;;;;;5027386;28;20865;-73
2021/07/21 08:12:42;;;;;;;9.88;4.70;;;19.10;98.00;;;;;;5028241;28;20017;-73
2021/07/21 08:15:08;;;;;;;9.32;4.60;;;19.30;98.60;;;;;;5026804;28;20032;-73
2021/07/21 08:17:36;;;;;;;10.65;4.63;;;19.50;99.00;;;;;;5045836;28;20024;-73
2021/07/21 08:20:05;;;;;;;7.70;4.15;;;19.60;99.90;;;;;;5043929;28;20032;-73
2021/07/21 08:22:38;;;;;;;6.28;4.38;;;19.80;99.90;;;;;;5041956;28;20163;-69
2021/07/21 08:25:13;;;;;;;8.02;4.53;;;19.80;96.10;;;;;;5044120;28;20036;-68
2021/07/21 08:27:38;;;;;;;6.50;4.40;;;19.90;93.40;;;;;;5044435;28;20078;-72
2021/07/21 08:30:11;;;;;;;7.28;5.00;;;20.00;94.80;;;;;;5027109;28;20385;-73
2021/07/21 08:32:37;;;;;;;7.00;4.25;;;20.10;96.60;;;;;;5059858;28;20351;-74
2021/07/21 08:35:03;;;;;;;7.20;4.13;;;20.20;91.90;;;;;;5044176;28;21977;-73
2021/07/21 08:37:32;;;;;;;6.32;3.60;;;20.30;93.80;;;;;;5044870;28;20442;-73
2021/07/21 08:39:58;;;;;;;8.77;4.10;;;20.30;85.60;;;;;;5027691;28;20029;-73
2021/07/21 08:42:27;;;;;;;6.78;3.92;;;20.40;87.20;;;;;;5044099;28;20672;-71
2021/07/21 08:44:53;;;;;;;6.32;4.38;;;20.50;87.40;;;;;;5027956;28;20036;-73
2021/07/21 08:47:21;;;;;;;7.07;4.00;;;20.50;90.60;;;;;;4997033;28;20142;-73
2021/07/21 08:49:49;;;;;;;7.45;4.78;;;20.60;90.90;;;;;;5061283;28;20040;-73
2021/07/21 08:52:15;;;;;;;6.90;4.20;;;20.60;90.20;;;;;;5046213;28;20032;-72
2021/07/21 08:54:41;;;;;;;6.38;4.00;;;20.60;82.70;;;;;;5026905;28;20485;-73
2021/07/21 08:57:07;;;;;;;7.35;4.10;;;20.50;77.60;;;;;;5024753;28;20051;-73
2021/07/21 08:59:33;;;;;;;6.78;4.18;;;20.60;84.30;;;;;;5060401;28;20033;-73
2021/07/21 09:02:01;;;;;;;7.18;3.88;;;20.60;82.30;;;;;;5027405;28;20370;-73
2021/07/21 09:04:27;;;;;;;6.35;3.78;;;20.60;83.00;;;;;;5044407;28;20549;-73
2021/07/21 09:06:53;;;;;;;7.75;3.90;;;20.70;81.00;;;;;;5043577;28;20134;-73
2021/07/21 09:09:19;;;;;;;5.43;3.40;;;20.70;77.20;;;;;;5026810;28;20036;-73
2021/07/21 09:11:44;;;;;;;6.57;3.65;;;20.80;83.60;;;;;;5060657;28;20056;-72
2021/07/21 09:14:10;;;;;;;6.25;3.92;;;20.90;85.50;;;;;;5025318;28;20732;-73
2021/07/21 09:16:40;;;;;;;9.15;3.60;;;20.90;82.30;;;;;;5045359;28;20044;-73
2021/07/21 09:19:06;;;;;;;5.22;3.30;;;21.00;83.50;;;;;;5042959;28;20035;-73
2021/07/21 09:21:31;;;;;;;5.55;3.60;;;21.10;80.80;;;;;;5015494;28;20029;-73
2021/07/21 09:23:57;;;;;;;6.70;4.00;;;21.10;79.80;;;;;;5048020;28;20032;-72
2021/07/21 09:26:23;;;;;;;7.25;4.28;;;21.20;84.00;;;;;;5030802;28;20028;-74
2021/07/21 09:28:52;;;;;;;6.53;4.25;;;21.20;79.30;;;;;;5047532;28;20045;-74
2021/07/21 09:31:37;;;;;;;7.18;3.97;;;21.30;82.60;;;;;;5031944;28;20478;-72
2021/07/21 09:34:15;;;;;;;8.40;4.10;;;21.30;80.70;;;;;;5036894;28;21844;-73
2021/07/21 09:36:44;;;;;;;7.13;4.05;;;21.40;82.80;;;;;;5031009;28;20105;-73
2021/07/21 09:39:12;;;;;;;7.35;4.57;;;21.40;79.90;;;;;;5064339;28;20025;-73
2021/07/21 09:41:50;;;;;;;7.53;4.10;;;21.50;85.30;;;;;;5047533;28;20139;-71
2021/07/21 09:44:19;;;;;;;8.05;4.15;;;21.60;82.30;;;;;;5048142;28;20028;-72
2021/07/21 09:46:45;;;;;;;7.13;4.20;;;21.60;81.50;;;;;;5031731;28;20077;-73
2021/07/21 09:49:20;;;;;;;7.05;4.28;;;21.70;84.00;;;;;;5029937;28;20116;-73
2021/07/21 09:51:46;;;;;;;6.15;3.92;;;21.80;82.50;;;;;;5017289;28;20661;-73
2021/07/21 09:54:12;;;;;;;8.20;4.30;;;21.90;82.10;;;;;;5064672;28;20029;-73
2021/07/21 09:56:38;;;;;;;7.28;4.30;;;21.90;86.20;;;;;;5048400;28;20408;-73
2021/07/21 09:59:22;;;;;;;6.65;4.00;;;21.90;83.80;;;;;;5063245;28;20057;-73
2021/07/21 10:01:48;;;;;;;6.43;4.15;;;22.00;75.20;;;;;;5063464;28;20024;-73
2021/07/21 10:04:16;;;;;;;7.70;4.38;;;22.00;78.10;;;;;;5001732;28;20439;-73
2021/07/21 10:06:43;;;;;;;7.53;4.40;;;22.00;78.80;;;;;;5047478;28;20036;-73
2021/07/21 10:09:08;;;;;;;7.72;4.43;;;22.00;77.20;;;;;;5029947;28;20024;-73
2021/07/21 10:11:40;;;;;;;6.95;4.43;;;22.00;77.60;;;;;;5045804;28;20067;-74
2021/07/21 10:14:10;;;;;;;6.88;4.30;;;22.00;79.00;;;;;;5029620;28;20480;-73
2021/07/21 10:16:54;;;;;;;7.72;4.28;;;22.00;77.70;;;;;;5029146;28;20961;-73
2021/07/21 10:19:30;;;;;;;7.10;4.20;;;22.20;81.70;;;;;;5045536;28;20025;-73
2021/07/21 10:22:00;;;;;;;8.10;4.40;;;22.20;77.40;;;;;;5029185;28;21744;-74
2021/07/21 10:24:30;;;;;;;6.57;4.68;;;22.30;80.40;;;;;;5048124;28;20025;-73
2021/07/21 10:26:56;;;;;;;7.90;4.45;;;22.40;80.70;;;;;;5062531;28;20028;-73
2021/07/21 10:29:24;;;;;;;7.65;4.20;;;22.50;82.50;;;;;;5046743;28;20056;-69
2021/07/21 10:31:50;;;;;;;7.53;4.68;;;22.50;73.30;;;;;;4999236;28;20513;-68
2021/07/21 10:34:16;;;;;;;6.93;4.47;;;22.50;74.90;;;;;;5046210;28;20063;-68
2021/07/21 10:36:44;;;;;;;7.00;4.50;;;22.60;75.50;;;;;;5044854;28;20112;-73
2021/07/21 10:39:14;;;;;;;6.88;4.50;;;22.70;77.70;;;;;;5014551;28;20510;-74
2021/07/21 10:41:41;;;;;;;6.75;4.30;;;22.80;76.20;;;;;;5045500;28;20050;-73
2021/07/21 10:44:11;;;;;;;8.40;4.72;;;22.80;72.20;;;;;;5015550;28;20454;-74
2021/07/21 10:46:50;;;;;;;7.88;4.40;;;22.80;76.10;;;;;;5028987;28;20040;-73
2021/07/21 10:49:38;;;;;;;6.90;4.35;;;22.80;72.00;;;;;;5030762;28;20025;-74
2021/07/21 10:54:54;;;;;;;8.02;4.63;;;22.90;71.10;;;;;;5047466;28;20375;-73
2021/07/21 11:00:14;;;;;;;7.03;4.00;;;23.00;74.40;;;;;;5045971;28;20154;-73
2021/07/21 11:02:40;;;;;;;6.82;4.18;;;23.10;76.30;;;;;;5046781;28;20039;-73
2021/07/21 11:05:09;;;;;;;8.18;4.53;;;23.10;76.30;;;;;;5047148;28;20028;-73
2021/07/21 11:07:53;;;;;;;6.80;4.10;;;23.20;76.20;;;;;;5062479;28;20079;-72
2021/07/21 11:10:41;;;;;;;6.00;4.18;;;23.20;71.80;;;;;;5029375;28;20130;-72
2021/07/21 11:13:09;;;;;;;7.35;4.22;;;23.20;69.70;;;;;;5060124;28;20033;-73
2021/07/21 11:15:44;;;;;;;8.57;4.50;;;23.20;72.20;;;;;;5060664;28;20118;-72
2021/07/21 11:18:22;;;;;;;7.93;4.97;;;23.30;73.60;;;;;;5047193;28;20025;-73
2021/07/21 11:21:01;;;;;;;7.47;4.43;;;23.30;72.00;;;;;;5046206;28;20148;-73
2021/07/21 11:23:52;;;;;;;6.70;4.43;;;23.30;73.60;;;;;;5026146;28;20489;-73
2021/07/21 11:26:43;;;;;;;7.53;4.87;;;23.40;74.00;;;;;;5046231;28;20033;-73
2021/07/21 11:29:24;;;;;;;6.40;4.53;;;23.40;72.80;;;;;;5027881;28;20278;-73
2021/07/21 11:31:50;;;;;;;7.07;4.50;;;23.40;72.00;;;;;;5046860;28;20033;-73
2021/07/21 11:34:29;;;;;;;7.05;4.45;;;23.40;71.30;;;;;;5045697;28;20020;-73
2021/07/21 11:36:56;;;;;;;6.50;4.32;;;23.40;69.80;;;;;;5046723;28;20355;-73
2021/07/21 11:39:44;;;;;;;7.65;4.60;;;23.60;74.10;;;;;;5044840;28;20047;-73
2021/07/21 11:42:40;;;;;;;7.43;4.32;;;23.60;66.40;;;;;;5060040;28;20112;-72
2021/07/21 11:45:15;;;;;;;6.22;4.70;;;23.70;71.00;;;;;;5044843;28;20029;-73
2021/07/21 11:47:52;;;;;;;7.10;4.72;;;23.80;71.90;;;;;;5019688;28;20038;-72
2021/07/21 11:50:31;;;;;;;6.65;4.38;;;23.70;68.50;;;;;;5025319;28;20044;-72
2021/07/21 11:53:02;;;;;;;6.40;4.10;;;23.80;69.40;;;;;;5013568;28;20024;-75
2021/07/21 11:55:28;;;;;;;;;;;23.80;69.10;;;;;;5028186;28;20112;-73
2021/07/21 11:57:55;;;;;;;7.13;4.70;;;23.80;67.50;;;;;;5044877;28;19925;-73
2021/07/21 12:00:21;;;;;;;7.20;5.05;;;23.90;68.30;;;;;;5044100;28;20036;-73
2021/07/21 12:02:47;;;;;;;8.82;6.32;;;24.00;71.50;;;;;;5008008;28;20029;-70
2021/07/21 12:05:15;;;;;;;7.63;5.30;;;24.00;70.30;;;;;;5060583;28;20089;-68
2021/07/21 12:07:47;;;;;;;6.07;4.50;;;24.10;68.40;;;;;;5045696;28;20410;-68
2021/07/21 12:10:14;;;;;;;7.25;4.68;;;24.20;69.40;;;;;;5025946;28;20029;-68
2021/07/21 12:12:40;;;;;;;7.25;4.88;;;24.30;70.50;;;;;;5027002;28;20091;-68
2021/07/21 12:15:06;;;;;;;6.75;4.70;;;24.30;68.90;;;;;;5045509;28;20088;-68
2021/07/21 12:17:34;;;;;;;10.63;4.90;;;24.40;66.30;;;;;;5026912;28;20033;-70
2021/07/21 12:20:02;;;;;;;7.00;4.07;;;24.50;68.50;;;;;;5026000;28;20040;-70
2021/07/21 12:22:34;;;;;;;7.63;4.53;;;24.50;66.40;;;;;;5045236;28;20036;-70
2021/07/21 12:25:02;;;;;;;8.18;4.55;;;24.60;67.80;;;;;;5011382;28;20033;-70
2021/07/21 12:27:32;;;;;;;8.25;4.65;;;24.70;66.50;;;;;;5044725;28;20051;-70
2021/07/21 12:30:04;;;;;;;8.68;4.72;;;24.70;68.80;;;;;;5025163;28;20517;-71
2021/07/21 12:32:33;;;;;;;6.82;4.72;;;24.80;65.30;;;;;;5060495;28;20112;-70
2021/07/21 12:34:59;;;;;;;7.57;4.78;;;24.90;67.30;;;;;;5028104;28;20037;-70
2021/07/21 12:37:26;;;;;;;6.50;4.38;;;24.80;66.20;;;;;;5027372;28;20442;-70
2021/07/21 12:39:55;;;;;;;8.48;5.10;;;25.00;66.90;;;;;;5037863;28;20032;-70
2021/07/21 12:42:28;;;;;;;8.65;5.05;;;25.00;67.60;;;;;;5044901;28;20041;-71
2021/07/21 12:45:02;;;;;;;7.53;4.50;;;25.00;64.10;;;;;;5044108;28;20029;-74
2021/07/21 12:47:38;;;;;;;6.88;4.53;;;25.00;63.60;;;;;;5025034;28;20052;-69
2021/07/21 12:50:12;;;;;;;7.82;4.80;;;25.10;64.70;;;;;;4995086;28;20486;-71
2021/07/21 12:52:44;;;;;;;7.53;4.90;;;25.10;65.70;;;;;;5060742;28;20125;-70
2021/07/21 12:55:12;;;;;;;8.00;5.10;;;25.20;64.50;;;;;;5047120;28;20075;-71
2021/07/21 12:57:48;;;;;;;7.43;4.97;;;25.20;64.00;;;;;;5049889;28;20048;-70
2021/07/21 13:00:24;;;;;;;14.25;10.63;;;25.20;63.00;;;;;;5014289;28;20028;-72
2021/07/21 13:03:04;;;;;;;8.60;5.47;;;25.30;66.10;;;;;;4334906;28;10000887;-73
2021/07/21 13:05:45;;;;;;;6.78;4.93;;;25.40;68.60;;;;;;5048231;28;20063;-72